< < Back
Terminal Aerodrome Forecast


Current Version              Previous Versions:   1  2  3  4  5  6  7  8  9  

Terminal Aerodrome Forecast

505
FTUS42 KCAE 211400 AAA
TAFCAE
TAF AMD
KCAE 211432Z 2115/2212 35006KT P6SM SCT200
     FM211700 33006KT P6SM FEW050 SCT250
     FM220000 VRB03KT P6SM BKN150=

Latest METAR

811
SAUS80 KWBC 211600
MTRCAE
METAR KCAE 211556Z VRB06KT 10SM FEW220 34/17 A3009 RMK AO2 SLP183
T03390167


USA.gov is the U.S. government's official web portal to all federal, state and local government web resources and services.